createdAt,value
2019-02-21T00:00:29.022Z,4.00
2019-02-21T00:01:29.029Z,4.20
2019-02-21T00:02:29.016Z,3.60
2019-02-21T00:03:28.992Z,3.80
2019-02-21T00:04:28.981Z,4.10
2019-02-21T00:05:29.872Z,3.70
2019-02-21T00:06:28.959Z,3.90
2019-02-21T00:07:28.954Z,3.80
2019-02-21T00:08:28.936Z,3.80
2019-02-21T00:09:28.926Z,4.30
2019-02-21T00:10:28.916Z,4.30
2019-02-21T00:11:28.903Z,4.10
2019-02-21T00:12:28.903Z,3.80
2019-02-21T00:13:28.884Z,3.70
2019-02-21T00:14:28.876Z,3.70
2019-02-21T00:15:28.856Z,3.70
2019-02-21T00:16:28.851Z,3.90
2019-02-21T00:17:28.899Z,3.70
2019-02-21T00:18:28.828Z,3.50
2019-02-21T00:19:28.817Z,3.80
2019-02-21T00:20:28.803Z,4.10
2019-02-21T00:21:28.795Z,4.20
2019-02-21T00:22:28.894Z,4.20
2019-02-21T00:23:28.771Z,3.90
2019-02-21T00:24:28.757Z,4.30
2019-02-21T00:25:28.747Z,3.90
2019-02-21T00:26:28.739Z,4.50
2019-02-21T00:27:28.749Z,4.10
2019-02-21T00:28:28.716Z,4.00
2019-02-21T00:29:29.366Z,4.00
2019-02-21T00:30:35.325Z,4.40
2019-02-21T00:31:28.687Z,4.20
2019-02-21T00:32:28.682Z,4.00
2019-02-21T00:33:28.675Z,4.10
2019-02-21T00:34:29.365Z,3.50
2019-02-21T00:35:28.635Z,4.00
2019-02-21T00:36:28.625Z,3.90
2019-02-21T00:37:28.629Z,4.10
2019-02-21T00:38:28.622Z,4.30
2019-02-21T00:39:28.593Z,4.10
2019-02-21T00:40:28.581Z,4.40
2019-02-21T00:41:28.573Z,3.90
2019-02-21T00:42:28.577Z,4.10
2019-02-21T00:43:28.590Z,4.20
2019-02-21T00:44:28.537Z,4.00
2019-02-21T00:45:29.382Z,4.10
2019-02-21T00:46:29.367Z,4.60
2019-02-21T00:47:28.509Z,3.50
2019-02-21T00:48:28.898Z,3.60
2019-02-21T00:49:28.490Z,3.90
2019-02-21T00:50:28.472Z,4.00
2019-02-21T00:51:29.368Z,4.30
2019-02-21T00:52:28.450Z,4.40
2019-02-21T00:53:28.464Z,4.30
2019-02-21T00:54:28.426Z,3.60
2019-02-21T00:55:29.372Z,4.10
2019-02-21T00:56:28.428Z,4.60
2019-02-21T00:57:28.398Z,4.20
2019-02-21T00:58:28.410Z,4.10
2019-02-21T00:59:28.375Z,4.40
2019-02-21T01:00:28.373Z,3.70
2019-02-21T01:01:28.351Z,4.40
2019-02-21T01:02:28.343Z,4.80
2019-02-21T01:03:28.354Z,3.80
2019-02-21T01:04:28.870Z,4.20
2019-02-21T01:05:28.312Z,4.40
2019-02-21T01:06:28.874Z,4.70
2019-02-21T01:07:28.285Z,4.60
2019-02-21T01:08:28.380Z,4.40
2019-02-21T01:09:28.267Z,4.20
2019-02-21T01:10:28.253Z,4.80
2019-02-21T01:11:28.242Z,4.10
2019-02-21T01:12:28.238Z,4.30
2019-02-21T01:13:28.251Z,4.30
2019-02-21T01:14:28.209Z,4.10
2019-02-21T01:15:28.207Z,4.10
2019-02-21T01:16:28.187Z,4.60
2019-02-21T01:17:28.177Z,4.20
2019-02-21T01:18:28.912Z,4.80
2019-02-21T01:19:28.386Z,4.60
2019-02-21T01:20:28.874Z,4.50
2019-02-21T01:21:28.133Z,4.40
2019-02-21T01:22:28.875Z,4.90
2019-02-21T01:23:28.198Z,4.40
2019-02-21T01:24:28.126Z,4.60
2019-02-21T01:25:28.872Z,4.40
2019-02-21T01:26:28.075Z,4.10
2019-02-21T01:27:28.066Z,4.20
2019-02-21T01:28:28.056Z,4.20
2019-02-21T01:29:28.064Z,3.90
2019-02-21T01:30:28.873Z,4.50
2019-02-21T01:31:28.019Z,4.20
2019-02-21T01:32:28.013Z,4.50
2019-02-21T01:33:28.010Z,4.20
2019-02-21T01:34:27.998Z,4.70
2019-02-21T01:35:28.872Z,4.10
2019-02-21T01:36:27.965Z,4.40
2019-02-21T01:37:27.956Z,4.40
2019-02-21T01:38:27.956Z,4.20
2019-02-21T01:39:27.947Z,4.40
2019-02-21T01:40:27.932Z,4.50
2019-02-21T01:41:27.911Z,4.30
2019-02-21T01:42:27.901Z,4.40
2019-02-21T01:43:27.898Z,4.30
2019-02-21T01:44:27.893Z,4.30
2019-02-21T01:45:27.869Z,4.20
2019-02-21T01:46:27.858Z,4.50
2019-02-21T01:47:27.845Z,4.20
2019-02-21T01:48:29.625Z,4.40
2019-02-21T01:49:27.838Z,4.60
2019-02-21T01:50:27.816Z,4.70
2019-02-21T01:51:27.881Z,4.70
2019-02-21T01:52:27.789Z,4.00
2019-02-21T01:53:28.379Z,4.30
2019-02-21T01:54:27.901Z,4.40
2019-02-21T01:55:27.758Z,4.30
2019-02-21T01:56:27.744Z,4.30
2019-02-21T01:57:27.736Z,4.50
2019-02-21T01:58:27.740Z,4.00
2019-02-21T01:59:27.722Z,3.70
2019-02-21T02:00:28.384Z,4.40
2019-02-21T02:01:27.693Z,4.20
2019-02-21T02:02:27.679Z,3.80
2019-02-21T02:03:27.685Z,4.40
2019-02-21T02:04:27.885Z,4.10
2019-02-21T02:05:27.645Z,4.30
2019-02-21T02:06:27.636Z,4.40
2019-02-21T02:07:27.630Z,4.50
2019-02-21T02:08:27.631Z,4.20
2019-02-21T02:09:27.889Z,3.60
2019-02-21T02:10:27.590Z,4.40
2019-02-21T02:11:27.579Z,4.50
2019-02-21T02:12:27.569Z,4.40
2019-02-21T02:13:27.574Z,4.10
2019-02-21T02:14:27.544Z,4.60
2019-02-21T02:15:27.886Z,3.80
2019-02-21T02:16:27.528Z,4.20
2019-02-21T02:17:27.513Z,4.40
2019-02-21T02:18:27.507Z,4.00
2019-02-21T02:19:27.492Z,4.00
2019-02-21T02:20:27.493Z,3.80
2019-02-21T02:21:27.465Z,4.10
2019-02-21T02:22:28.375Z,4.30
2019-02-21T02:23:28.372Z,3.90
2019-02-21T02:24:27.442Z,4.40
2019-02-21T02:25:27.452Z,4.20
2019-02-21T02:26:27.422Z,3.70
2019-02-21T02:27:28.376Z,4.30
2019-02-21T02:28:27.390Z,4.10
2019-02-21T02:29:28.377Z,4.50
2019-02-21T02:30:27.388Z,4.20
2019-02-21T02:31:27.886Z,4.20
2019-02-21T02:32:27.877Z,3.80
2019-02-21T02:33:27.335Z,4.20
2019-02-21T02:34:27.323Z,4.40
2019-02-21T02:35:27.331Z,4.10
2019-02-21T02:36:27.308Z,3.90
2019-02-21T02:37:27.296Z,4.00
2019-02-21T02:38:27.880Z,4.40
2019-02-21T02:39:27.899Z,3.70
2019-02-21T02:40:27.385Z,3.30
2019-02-21T02:41:27.876Z,3.90
2019-02-21T02:42:27.242Z,3.90
2019-02-21T02:43:27.237Z,4.00
2019-02-21T02:44:27.881Z,4.10
2019-02-21T02:45:27.258Z,3.80
2019-02-21T02:46:27.194Z,3.80
2019-02-21T02:47:27.183Z,4.20
2019-02-21T02:48:27.168Z,4.50
2019-02-21T02:49:27.164Z,3.60
2019-02-21T02:50:27.157Z,3.70
2019-02-21T02:51:27.140Z,3.90
2019-02-21T02:52:27.129Z,3.60
2019-02-21T02:53:27.128Z,3.50
2019-02-21T02:54:27.107Z,3.90
2019-02-21T02:55:27.124Z,4.10
2019-02-21T02:56:27.878Z,4.30
2019-02-21T02:57:27.084Z,3.80
2019-02-21T02:58:27.060Z,3.50
2019-02-21T02:59:40.014Z,3.60
2019-02-21T03:00:27.090Z,3.70
2019-02-21T03:01:34.822Z,3.90
2019-02-21T03:02:27.012Z,3.70
2019-02-21T03:03:27.004Z,4.00
2019-02-21T03:04:28.209Z,3.70
2019-02-21T03:05:26.985Z,4.10
2019-02-21T03:06:27.390Z,3.80
2019-02-21T03:07:27.882Z,3.90
2019-02-21T03:08:26.952Z,3.90
2019-02-21T03:09:26.937Z,3.80
2019-02-21T03:10:27.882Z,4.50
2019-02-21T03:11:26.944Z,3.80
2019-02-21T03:12:26.905Z,4.20
2019-02-21T03:13:27.879Z,4.40
2019-02-21T03:14:26.896Z,3.70
2019-02-21T03:15:26.873Z,3.90
2019-02-21T03:16:26.872Z,4.10
2019-02-21T03:17:26.855Z,4.30
2019-02-21T03:18:27.385Z,4.00
2019-02-21T03:19:26.841Z,4.10
2019-02-21T03:20:26.817Z,4.50
2019-02-21T03:21:26.889Z,4.10
2019-02-21T03:22:27.383Z,4.10
2019-02-21T03:23:26.784Z,3.70
2019-02-21T03:24:26.786Z,4.00
2019-02-21T03:25:26.764Z,3.90
2019-02-21T03:26:26.892Z,4.00
2019-02-21T03:27:26.738Z,4.10
2019-02-21T03:28:26.726Z,4.40
2019-02-21T03:29:26.740Z,3.80
2019-02-21T03:30:26.725Z,4.00
2019-02-21T03:31:26.707Z,3.60
2019-02-21T03:32:26.685Z,3.80
2019-02-21T03:33:26.684Z,4.00
2019-02-21T03:34:27.405Z,3.80
2019-02-21T03:35:26.658Z,4.20
2019-02-21T03:36:26.709Z,3.90
2019-02-21T03:37:26.629Z,4.00
2019-02-21T03:38:26.619Z,3.90
2019-02-21T03:39:26.610Z,3.90
2019-02-21T03:40:26.593Z,3.80
2019-02-21T03:41:26.892Z,3.90
2019-02-21T03:42:26.572Z,3.70
2019-02-21T03:43:26.564Z,3.70
2019-02-21T03:44:26.547Z,3.70
2019-02-21T03:45:26.543Z,4.00
2019-02-21T03:46:26.901Z,4.20
2019-02-21T03:47:26.524Z,4.10
2019-02-21T03:48:26.505Z,3.50
2019-02-21T03:49:27.381Z,4.30
2019-02-21T03:50:26.489Z,4.20
2019-02-21T03:51:26.893Z,3.80
2019-02-21T03:52:26.457Z,3.90
2019-02-21T03:53:26.450Z,3.80
2019-02-21T03:54:26.443Z,3.70
2019-02-21T03:55:26.443Z,4.00
2019-02-21T03:56:26.451Z,4.30
2019-02-21T03:57:27.379Z,4.20
2019-02-21T03:58:26.392Z,4.20
2019-02-21T03:59:26.395Z,4.40
2019-02-21T04:00:26.371Z,3.20
2019-02-21T04:01:26.376Z,4.00
2019-02-21T04:02:26.350Z,3.80
2019-02-21T04:03:26.341Z,3.80
2019-02-21T04:04:26.360Z,4.00
2019-02-21T04:05:26.318Z,4.10
2019-02-21T04:06:26.318Z,4.00
2019-02-21T04:07:26.293Z,3.70
2019-02-21T04:08:26.283Z,4.10
2019-02-21T04:09:26.287Z,4.40
2019-02-21T04:10:26.263Z,4.00
2019-02-21T04:11:26.252Z,4.20
2019-02-21T04:12:26.396Z,4.00
2019-02-21T04:13:26.231Z,4.10
2019-02-21T04:14:26.230Z,4.30
2019-02-21T04:15:26.206Z,4.00
2019-02-21T04:16:26.194Z,4.30
2019-02-21T04:17:26.196Z,4.00
2019-02-21T04:18:26.179Z,3.90
2019-02-21T04:19:26.894Z,3.90
2019-02-21T04:20:26.167Z,4.40
2019-02-21T04:21:26.140Z,3.90
2019-02-21T04:22:26.136Z,3.80
2019-02-21T04:23:26.121Z,4.10
2019-02-21T04:24:26.123Z,4.10
2019-02-21T04:25:26.095Z,4.20
2019-02-21T04:26:26.084Z,4.20
2019-02-21T04:27:26.115Z,4.30
2019-02-21T04:28:26.076Z,3.80
2019-02-21T04:29:26.900Z,4.00
2019-02-21T04:30:26.040Z,4.10
2019-02-21T04:31:26.028Z,4.30
2019-02-21T04:32:26.032Z,4.40
2019-02-21T04:33:26.022Z,4.30
2019-02-21T04:34:26.009Z,3.70
2019-02-21T04:35:26.884Z,3.70
2019-02-21T04:36:26.893Z,4.30
2019-02-21T04:37:25.980Z,3.50
2019-02-21T04:38:25.977Z,3.80
2019-02-21T04:39:25.979Z,4.30
2019-02-21T04:40:26.898Z,4.10
2019-02-21T04:41:25.929Z,4.40
2019-02-21T04:42:25.920Z,4.00
2019-02-21T04:43:25.900Z,4.40
2019-02-21T04:44:25.891Z,4.20
2019-02-21T04:45:25.889Z,4.10
2019-02-21T04:46:25.862Z,3.80
2019-02-21T04:47:25.861Z,4.30
2019-02-21T04:48:26.386Z,4.30
2019-02-21T04:49:25.837Z,4.00
2019-02-21T04:50:25.828Z,4.10
2019-02-21T04:51:25.808Z,4.40
2019-02-21T04:52:25.805Z,4.20
2019-02-21T04:53:25.789Z,4.20
2019-02-21T04:54:25.775Z,4.40
2019-02-21T04:55:25.770Z,4.20
2019-02-21T04:56:25.753Z,4.20
2019-02-21T04:57:25.755Z,4.40
2019-02-21T04:58:25.733Z,4.40
2019-02-21T04:59:25.728Z,4.40
2019-02-21T05:00:26.385Z,4.10
2019-02-21T05:01:25.698Z,4.10
2019-02-21T05:02:28.864Z,4.40
2019-02-21T05:03:25.690Z,4.30
2019-02-21T05:04:25.669Z,3.90
2019-02-21T05:05:25.655Z,4.10
2019-02-21T05:06:25.639Z,4.20
2019-02-21T05:07:25.629Z,5.20
2019-02-21T05:08:25.634Z,4.10
2019-02-21T05:09:27.103Z,4.30
2019-02-21T05:10:25.600Z,4.60
2019-02-21T05:11:25.599Z,3.90
2019-02-21T05:12:25.575Z,4.60
2019-02-21T05:13:25.578Z,4.10
2019-02-21T05:14:25.569Z,4.30
2019-02-21T05:15:25.546Z,4.10
2019-02-21T05:16:25.529Z,4.10
2019-02-21T05:17:25.550Z,4.10
2019-02-21T05:18:25.522Z,4.50
2019-02-21T05:19:25.498Z,4.10
2019-02-21T05:20:25.490Z,4.50
2019-02-21T05:21:25.484Z,4.10
2019-02-21T05:22:25.463Z,4.40
2019-02-21T05:23:25.467Z,4.30
2019-02-21T05:24:25.446Z,4.20
2019-02-21T05:25:25.434Z,4.70
2019-02-21T05:26:25.421Z,4.90
2019-02-21T05:27:25.409Z,4.10
2019-02-21T05:28:25.428Z,3.90
2019-02-21T05:29:25.391Z,4.20
2019-02-21T05:30:25.378Z,4.60
2019-02-21T05:31:25.365Z,4.70
2019-02-21T05:32:25.354Z,4.10
2019-02-21T05:33:25.363Z,4.30
2019-02-21T05:34:25.331Z,4.50
2019-02-21T05:35:25.321Z,3.70
2019-02-21T05:36:25.316Z,3.70
2019-02-21T05:37:25.299Z,4.40
2019-02-21T05:38:25.342Z,4.30
2019-02-21T05:39:25.274Z,3.80
2019-02-21T05:40:25.271Z,4.10
2019-02-21T05:41:25.253Z,3.70
2019-02-21T05:42:25.249Z,3.90
2019-02-21T05:43:25.248Z,4.40
2019-02-21T05:44:25.223Z,4.00
2019-02-21T05:45:25.888Z,4.20
2019-02-21T05:46:25.214Z,4.60
2019-02-21T05:47:25.887Z,3.60
2019-02-21T05:48:25.194Z,3.90
2019-02-21T05:49:25.176Z,3.80
2019-02-21T05:50:25.894Z,3.80
2019-02-21T05:51:25.149Z,3.80
2019-02-21T05:52:25.136Z,3.90
2019-02-21T05:53:25.164Z,4.00
2019-02-21T05:54:25.115Z,3.90
2019-02-21T05:55:25.911Z,3.90
2019-02-21T05:56:25.088Z,4.10
2019-02-21T05:57:25.091Z,4.20
2019-02-21T05:58:25.097Z,3.90
2019-02-21T05:59:25.057Z,4.10
2019-02-21T06:00:25.058Z,4.20
2019-02-21T06:01:25.037Z,3.60
2019-02-21T06:02:25.905Z,3.70
2019-02-21T06:03:25.072Z,4.10
2019-02-21T06:04:25.014Z,4.00
2019-02-21T06:05:25.000Z,4.10
2019-02-21T06:06:24.989Z,4.30
2019-02-21T06:07:25.889Z,4.40
2019-02-21T06:08:24.959Z,4.30
2019-02-21T06:09:24.956Z,4.40
2019-02-21T06:10:24.947Z,4.00
2019-02-21T06:11:25.919Z,3.90
2019-02-21T06:12:33.509Z,4.30
2019-02-21T06:13:24.910Z,4.60
2019-02-21T06:14:24.906Z,4.20
2019-02-21T06:15:24.917Z,4.70
2019-02-21T06:16:24.880Z,4.10
2019-02-21T06:17:24.858Z,4.10
2019-02-21T06:18:25.392Z,4.20
2019-02-21T06:19:24.857Z,4.20
2019-02-21T06:20:25.400Z,3.90
2019-02-21T06:21:24.817Z,4.60
2019-02-21T06:22:24.818Z,4.20
2019-02-21T06:23:25.390Z,3.80
2019-02-21T06:24:24.908Z,4.40
2019-02-21T06:25:24.783Z,4.20
2019-02-21T06:26:24.787Z,4.20
2019-02-21T06:27:24.748Z,4.00
2019-02-21T06:28:24.746Z,4.40
2019-02-21T06:29:24.955Z,4.50
2019-02-21T06:30:24.743Z,4.50
2019-02-21T06:31:24.709Z,4.50
2019-02-21T06:32:24.695Z,4.20
2019-02-21T06:33:25.389Z,4.30
2019-02-21T06:34:24.693Z,4.40
2019-02-21T06:35:24.674Z,4.40
2019-02-21T06:36:26.282Z,4.10
2019-02-21T06:37:25.393Z,4.20
2019-02-21T06:38:24.642Z,4.60
2019-02-21T06:39:25.207Z,4.30
2019-02-21T06:40:24.621Z,4.10
2019-02-21T06:41:25.388Z,4.10
2019-02-21T06:42:25.408Z,4.20
2019-02-21T06:43:24.572Z,4.30
2019-02-21T06:44:24.580Z,4.10
2019-02-21T06:45:24.586Z,4.30
2019-02-21T06:46:25.394Z,4.80
2019-02-21T06:47:25.395Z,4.20
2019-02-21T06:48:24.517Z,4.20
2019-02-21T06:49:32.117Z,4.60
2019-02-21T06:50:27.074Z,4.00
2019-02-21T06:51:24.496Z,4.30
2019-02-21T06:52:24.477Z,4.00
2019-02-21T06:53:24.465Z,4.00
2019-02-21T06:54:24.467Z,4.10
2019-02-21T06:55:24.449Z,4.00
2019-02-21T06:56:24.440Z,4.20
2019-02-21T06:57:24.422Z,4.10
2019-02-21T06:58:24.411Z,4.60
2019-02-21T06:59:24.419Z,4.30
2019-02-21T07:00:24.403Z,4.40
2019-02-21T07:01:29.158Z,4.00
2019-02-21T07:02:24.366Z,4.50
2019-02-21T07:03:24.356Z,4.10
2019-02-21T07:04:24.398Z,4.10
2019-02-21T07:05:24.333Z,4.40
2019-02-21T07:06:32.114Z,3.90
2019-02-21T07:07:24.356Z,4.00
2019-02-21T07:08:25.188Z,4.30
2019-02-21T07:09:24.892Z,4.20
2019-02-21T07:10:24.409Z,4.00
2019-02-21T07:11:25.424Z,4.20
2019-02-21T07:12:24.269Z,4.20
2019-02-21T07:13:26.848Z,3.50
2019-02-21T07:14:24.247Z,3.30
2019-02-21T07:15:24.408Z,2.90
2019-02-21T07:16:24.932Z,3.60
2019-02-21T07:17:24.215Z,3.00
2019-02-21T07:18:24.202Z,3.50
2019-02-21T07:19:24.181Z,3.10
2019-02-21T07:20:24.186Z,3.40
2019-02-21T07:21:24.169Z,4.00
2019-02-21T07:22:24.151Z,3.60
2019-02-21T07:23:24.904Z,3.80
2019-02-21T07:24:24.139Z,4.10
2019-02-21T07:25:24.158Z,3.50
2019-02-21T07:26:24.912Z,3.20
2019-02-21T07:27:24.124Z,3.60
2019-02-21T07:28:24.118Z,3.90
2019-02-21T07:29:24.103Z,3.90
2019-02-21T07:30:24.171Z,3.30
2019-02-21T07:31:28.577Z,4.10
2019-02-21T07:32:24.056Z,4.40
2019-02-21T07:33:28.591Z,4.20
2019-02-21T07:34:24.016Z,3.90
2019-02-21T07:35:24.033Z,4.20
2019-02-21T07:36:24.004Z,3.70
2019-02-21T07:37:23.997Z,4.00
2019-02-21T07:38:24.942Z,4.30
2019-02-21T07:39:23.975Z,4.80
2019-02-21T07:40:23.991Z,4.00
2019-02-21T07:41:24.910Z,4.10
2019-02-21T07:42:23.947Z,3.90
2019-02-21T07:43:25.096Z,4.40
2019-02-21T07:44:23.908Z,3.70
2019-02-21T07:45:23.927Z,4.20
2019-02-21T07:46:24.429Z,4.30
2019-02-21T07:47:23.875Z,4.50
2019-02-21T07:48:23.860Z,4.30
2019-02-21T07:49:25.682Z,3.90
2019-02-21T07:50:23.856Z,4.40
2019-02-21T07:51:23.865Z,3.70
2019-02-21T07:52:26.102Z,5.10
2019-02-21T07:53:23.811Z,3.90
2019-02-21T07:54:24.392Z,3.80
2019-02-21T07:55:23.830Z,4.10
2019-02-21T07:56:23.835Z,4.70
2019-02-21T07:57:23.789Z,3.70
2019-02-21T07:58:23.782Z,3.60
2019-02-21T07:59:23.750Z,4.20
2019-02-21T08:00:23.736Z,4.00
2019-02-21T08:01:23.759Z,4.30
2019-02-21T08:02:24.422Z,3.70
2019-02-21T08:03:31.889Z,4.60
2019-02-21T08:04:23.706Z,4.40
2019-02-21T08:05:23.855Z,3.80
2019-02-21T08:06:23.921Z,4.30
2019-02-21T08:07:26.266Z,3.80
2019-02-21T08:08:23.675Z,4.10
2019-02-21T08:09:23.656Z,3.90
2019-02-21T08:10:33.159Z,3.90
2019-02-21T08:11:23.627Z,3.60
2019-02-21T08:12:23.597Z,3.70
2019-02-21T08:13:23.602Z,3.40
2019-02-21T08:14:23.587Z,3.50
2019-02-21T08:15:23.570Z,3.40
2019-02-21T08:16:23.569Z,3.90
2019-02-21T08:17:23.545Z,3.10
2019-02-21T08:18:24.406Z,3.80
2019-02-21T08:19:23.525Z,3.30
2019-02-21T08:20:33.515Z,3.70
2019-02-21T08:21:23.545Z,4.20
2019-02-21T08:22:23.485Z,3.10
2019-02-21T08:23:24.397Z,3.20
2019-02-21T08:24:23.465Z,3.30
2019-02-21T08:25:23.465Z,3.40
2019-02-21T08:26:23.468Z,3.20
2019-02-21T08:27:23.428Z,3.30
2019-02-21T08:28:23.422Z,3.80
2019-02-21T08:29:23.453Z,3.20
2019-02-21T08:30:23.413Z,3.30
2019-02-21T08:31:23.421Z,3.20
2019-02-21T08:32:23.393Z,3.00
2019-02-21T08:33:23.364Z,3.30
2019-02-21T08:34:23.353Z,3.00
2019-02-21T08:35:23.339Z,3.30
2019-02-21T08:36:23.360Z,2.80
2019-02-21T08:37:23.339Z,3.00
2019-02-21T08:38:23.311Z,2.80
2019-02-21T08:39:23.905Z,2.90
2019-02-21T08:40:25.075Z,3.10
2019-02-21T08:41:25.656Z,3.10
2019-02-21T08:42:23.261Z,2.80
2019-02-21T08:43:23.249Z,3.20
2019-02-21T08:44:23.240Z,2.90
2019-02-21T08:45:23.907Z,2.90
2019-02-21T08:46:23.910Z,3.00
2019-02-21T08:47:23.211Z,3.10
2019-02-21T08:48:23.194Z,3.10
2019-02-21T08:49:23.180Z,3.10
2019-02-21T08:50:23.172Z,2.80
2019-02-21T08:51:23.163Z,3.40
2019-02-21T08:52:23.430Z,3.10
2019-02-21T08:53:23.168Z,2.70
2019-02-21T08:54:23.135Z,3.20
2019-02-21T08:55:23.115Z,3.20
2019-02-21T08:56:23.896Z,2.90
2019-02-21T08:57:23.424Z,2.90
2019-02-21T08:58:23.907Z,3.30
2019-02-21T08:59:23.908Z,2.70
2019-02-21T09:00:23.063Z,2.90
2019-02-21T09:01:23.051Z,2.80
2019-02-21T09:02:44.414Z,2.70
2019-02-21T09:03:23.053Z,3.20
2019-02-21T09:04:27.595Z,3.10
2019-02-21T09:05:23.036Z,2.90
2019-02-21T09:06:24.768Z,2.90
2019-02-21T09:07:22.997Z,3.00
2019-02-21T09:08:33.111Z,3.10
2019-02-21T09:09:22.969Z,3.20
2019-02-21T09:10:22.967Z,2.90
2019-02-21T09:11:23.920Z,3.00
2019-02-21T09:12:23.424Z,3.00
2019-02-21T09:13:23.883Z,3.10
2019-02-21T09:14:22.938Z,3.10
2019-02-21T09:15:22.914Z,3.20
2019-02-21T09:16:22.883Z,3.10
2019-02-21T09:17:22.903Z,2.90
2019-02-21T09:18:22.860Z,2.80
2019-02-21T09:19:23.404Z,2.40
2019-02-21T09:20:22.853Z,3.00
2019-02-21T09:21:22.828Z,2.90
2019-02-21T09:22:22.851Z,2.80
2019-02-21T09:23:22.803Z,3.10
2019-02-21T09:24:37.780Z,2.90
2019-02-21T09:25:22.782Z,2.70
2019-02-21T09:26:22.786Z,2.80
2019-02-21T09:27:22.794Z,3.10
2019-02-21T09:28:22.763Z,2.90
2019-02-21T09:29:22.737Z,3.00
2019-02-21T09:30:22.727Z,2.80
2019-02-21T09:31:22.718Z,2.60
2019-02-21T09:32:22.721Z,2.80
2019-02-21T09:33:22.694Z,3.00
2019-02-21T09:34:22.686Z,2.80
2019-02-21T09:35:22.678Z,2.40
2019-02-21T09:36:22.657Z,2.80
2019-02-21T09:37:22.669Z,2.70
2019-02-21T09:38:22.638Z,2.70
2019-02-21T09:39:22.626Z,2.40
2019-02-21T09:40:22.615Z,2.50
2019-02-21T09:41:22.600Z,3.00
2019-02-21T09:42:22.771Z,2.80
2019-02-21T09:43:23.400Z,2.40
2019-02-21T09:44:22.579Z,2.70
2019-02-21T09:45:23.418Z,2.90
2019-02-21T09:46:23.409Z,2.60
2019-02-21T09:47:22.941Z,2.60
2019-02-21T09:48:23.408Z,2.60
2019-02-21T09:49:23.402Z,2.60
2019-02-21T09:50:22.600Z,2.50
2019-02-21T09:51:22.500Z,2.50
2019-02-21T09:52:23.412Z,2.80
2019-02-21T09:53:22.478Z,2.30
2019-02-21T09:54:22.459Z,2.70
2019-02-21T09:55:22.447Z,2.40
2019-02-21T09:56:29.829Z,2.50
2019-02-21T09:57:22.437Z,2.70
2019-02-21T09:58:22.921Z,2.50
2019-02-21T09:59:22.402Z,2.60
2019-02-21T10:00:22.472Z,2.40
2019-02-21T10:01:22.383Z,2.30
2019-02-21T10:02:23.194Z,2.60
2019-02-21T10:03:22.370Z,2.60
2019-02-21T10:04:31.898Z,2.10
2019-02-21T10:05:22.358Z,2.60
2019-02-21T10:06:22.906Z,2.40
2019-02-21T10:07:22.334Z,3.00
2019-02-21T10:08:22.330Z,2.20
2019-02-21T10:09:22.303Z,2.60
2019-02-21T10:10:22.285Z,2.10
2019-02-21T10:11:22.907Z,2.30
2019-02-21T10:12:22.276Z,2.60
2019-02-21T10:13:22.295Z,2.50
2019-02-21T10:14:22.247Z,2.60
2019-02-21T10:15:22.226Z,2.30
2019-02-21T10:16:22.247Z,2.50
2019-02-21T10:17:22.247Z,2.40
2019-02-21T10:18:22.209Z,3.10
2019-02-21T10:19:22.188Z,2.20
2019-02-21T10:20:22.173Z,2.50
2019-02-21T10:21:22.168Z,2.30
2019-02-21T10:22:22.168Z,2.00
2019-02-21T10:23:24.279Z,2.40
2019-02-21T10:24:22.902Z,1.90
2019-02-21T10:25:23.243Z,2.40
2019-02-21T10:26:22.111Z,2.70
2019-02-21T10:27:22.097Z,2.40
2019-02-21T10:28:22.417Z,2.20
2019-02-21T10:29:22.087Z,2.10
2019-02-21T10:30:22.915Z,2.30
2019-02-21T10:31:22.061Z,2.20
2019-02-21T10:32:22.906Z,2.20
2019-02-21T10:33:22.055Z,2.40
2019-02-21T10:34:22.045Z,2.30
2019-02-21T10:35:22.014Z,2.30
2019-02-21T10:36:21.997Z,1.90
2019-02-21T10:37:22.903Z,2.40
2019-02-21T10:38:21.975Z,2.30
2019-02-21T10:39:21.974Z,2.20
2019-02-21T10:40:21.958Z,2.30
2019-02-21T10:41:21.942Z,2.10
2019-02-21T10:42:21.934Z,2.40
2019-02-21T10:43:22.918Z,2.40
2019-02-21T10:44:22.422Z,2.30
2019-02-21T10:45:21.917Z,2.30
2019-02-21T10:46:21.887Z,2.30
2019-02-21T10:47:22.424Z,2.00
2019-02-21T10:48:22.404Z,2.30
2019-02-21T10:49:21.869Z,2.40
2019-02-21T10:50:21.886Z,2.40
2019-02-21T10:51:21.837Z,2.10
2019-02-21T10:52:22.401Z,1.90
2019-02-21T10:53:21.821Z,2.20
2019-02-21T10:54:21.920Z,2.50
2019-02-21T10:55:22.410Z,2.10
2019-02-21T10:56:21.777Z,2.30
2019-02-21T10:57:21.780Z,2.20
2019-02-21T10:58:21.799Z,2.30
2019-02-21T10:59:21.783Z,2.20
2019-02-21T11:00:22.403Z,2.10
2019-02-21T11:01:22.412Z,2.00
2019-02-21T11:02:21.708Z,2.40
2019-02-21T11:03:22.411Z,2.00
2019-02-21T11:04:21.715Z,2.20
2019-02-21T11:05:21.676Z,2.10
2019-02-21T11:06:21.668Z,2.10
2019-02-21T11:07:21.661Z,2.10
2019-02-21T11:08:21.681Z,2.10
2019-02-21T11:09:22.426Z,2.20
2019-02-21T11:10:21.667Z,1.90
2019-02-21T11:11:21.613Z,2.10
2019-02-21T11:12:21.602Z,2.10
2019-02-21T11:13:21.619Z,2.00
2019-02-21T11:14:21.592Z,2.30
2019-02-21T11:15:21.578Z,2.00
2019-02-21T11:16:21.588Z,1.90
2019-02-21T11:17:21.551Z,1.90
2019-02-21T11:18:21.548Z,2.00
2019-02-21T11:19:21.538Z,2.10
2019-02-21T11:20:21.520Z,2.00
2019-02-21T11:21:21.505Z,1.80
2019-02-21T11:22:22.407Z,2.10
2019-02-21T11:23:22.407Z,2.10
2019-02-21T11:24:21.959Z,2.30
2019-02-21T11:25:21.472Z,1.90
2019-02-21T11:26:21.452Z,2.30
2019-02-21T11:27:21.438Z,1.90
2019-02-21T11:28:21.441Z,1.70
2019-02-21T11:29:21.921Z,2.20
2019-02-21T11:30:21.412Z,2.40
2019-02-21T11:31:21.422Z,2.30
2019-02-21T11:32:21.387Z,1.80
2019-02-21T11:33:21.409Z,2.00
2019-02-21T11:34:21.384Z,2.20
2019-02-21T11:35:21.364Z,2.20
2019-02-21T11:36:21.905Z,2.10
2019-02-21T11:37:21.328Z,2.20
2019-02-21T11:38:21.400Z,1.90
2019-02-21T11:39:21.938Z,2.20
2019-02-21T11:40:21.302Z,2.20
2019-02-21T11:41:21.304Z,2.30
2019-02-21T11:42:21.924Z,2.20
2019-02-21T11:43:21.284Z,2.10
2019-02-21T11:44:21.248Z,2.00
2019-02-21T11:45:21.435Z,2.20
2019-02-21T11:46:21.917Z,2.60
2019-02-21T11:47:21.219Z,2.40
2019-02-21T11:48:21.216Z,2.10
2019-02-21T11:49:21.200Z,1.90
2019-02-21T11:50:21.451Z,2.30
2019-02-21T11:51:21.178Z,2.20
2019-02-21T11:52:21.165Z,2.00
2019-02-21T11:53:21.158Z,2.10
2019-02-21T11:54:26.949Z,1.90
2019-02-21T11:55:21.134Z,2.30
2019-02-21T11:56:21.115Z,1.90
2019-02-21T11:57:21.102Z,1.60
2019-02-21T11:58:21.106Z,2.00
2019-02-21T11:59:21.922Z,2.10
2019-02-21T12:00:21.116Z,2.40
2019-02-21T12:01:21.056Z,2.30
2019-02-21T12:02:21.910Z,2.30
2019-02-21T12:03:21.426Z,2.00
2019-02-21T12:04:21.025Z,1.90
2019-02-21T12:05:30.601Z,2.20
2019-02-21T12:06:21.002Z,1.90
2019-02-21T12:07:21.908Z,1.90
2019-02-21T12:08:20.985Z,2.10
2019-02-21T12:09:20.976Z,2.30
2019-02-21T12:10:20.986Z,2.10
2019-02-21T12:11:21.909Z,1.90
2019-02-21T12:12:20.941Z,2.60
2019-02-21T12:13:20.939Z,2.00
2019-02-21T12:14:20.916Z,2.00
2019-02-21T12:15:20.912Z,1.80
2019-02-21T12:16:20.892Z,1.60
2019-02-21T12:17:20.885Z,1.80
2019-02-21T12:18:20.880Z,2.00
2019-02-21T12:19:20.863Z,1.80
2019-02-21T12:20:20.871Z,2.00
2019-02-21T12:21:20.842Z,1.90
2019-02-21T12:22:20.829Z,2.00
2019-02-21T12:23:20.831Z,1.60
2019-02-21T12:24:21.411Z,2.00
2019-02-21T12:25:20.813Z,1.50
2019-02-21T12:26:20.789Z,1.80
2019-02-21T12:27:20.776Z,2.10
2019-02-21T12:28:20.770Z,2.00
2019-02-21T12:29:21.458Z,1.70
2019-02-21T12:30:20.418Z,1.70
2019-02-21T12:31:20.742Z,1.90
2019-02-21T12:32:20.719Z,1.60
2019-02-21T12:33:20.712Z,2.00
2019-02-21T12:34:21.415Z,1.90
2019-02-21T12:35:29.247Z,1.60
2019-02-21T12:36:20.707Z,1.90
2019-02-21T12:37:20.667Z,1.90
2019-02-21T12:38:20.659Z,2.10
2019-02-21T12:39:21.422Z,1.40
2019-02-21T12:40:21.408Z,1.90
2019-02-21T12:41:20.927Z,1.70
2019-02-21T12:42:20.611Z,1.60
2019-02-21T12:43:20.602Z,1.70
2019-02-21T12:44:21.412Z,1.80
2019-02-21T12:45:20.583Z,1.50
2019-02-21T12:46:20.580Z,1.70
2019-02-21T12:47:20.557Z,1.60
2019-02-21T12:48:21.411Z,1.50
2019-02-21T12:49:21.422Z,1.80
2019-02-21T12:50:20.567Z,1.90
2019-02-21T12:51:20.932Z,2.00
2019-02-21T12:52:20.502Z,2.60
2019-02-21T12:53:20.492Z,3.30
2019-02-21T12:54:21.422Z,3.60
2019-02-21T12:55:28.023Z,3.50
2019-02-21T12:56:20.458Z,3.40
2019-02-21T12:57:20.453Z,3.80
2019-02-21T12:58:21.413Z,3.80
2019-02-21T12:59:21.419Z,4.20
2019-02-21T13:00:20.416Z,4.30
2019-02-21T13:01:20.419Z,3.70
2019-02-21T13:02:20.447Z,4.00
2019-02-21T13:03:20.382Z,4.20
2019-02-21T13:04:20.383Z,4.00
2019-02-21T13:05:20.360Z,4.40
2019-02-21T13:06:20.919Z,4.30
2019-02-21T13:07:20.346Z,4.40
2019-02-21T13:08:20.328Z,4.30
2019-02-21T13:09:20.979Z,4.40
2019-02-21T13:10:20.308Z,4.10
2019-02-21T13:11:20.299Z,4.50
2019-02-21T13:12:20.313Z,4.40
2019-02-21T13:13:20.274Z,4.30
2019-02-21T13:14:20.275Z,4.50
2019-02-21T13:15:20.910Z,5.00
2019-02-21T13:16:20.249Z,5.00
2019-02-21T13:17:20.428Z,4.80
2019-02-21T13:18:20.218Z,4.90